sensor_id;sensor_type;location;lat;lon;timestamp;P1;durP1;ratioP1;P2;durP2;ratioP2
76818;SDS011;65772;51.096;17.006;2024-01-15T00:01:14;13.80;;;6.20;;
76818;SDS011;65772;51.096;17.006;2024-01-15T00:03:45;13.00;;;6.00;;
76818;SDS011;65772;51.096;17.006;2024-01-15T00:06:16;10.30;;;5.10;;
76818;SDS011;65772;51.096;17.006;2024-01-15T00:08:47;13.00;;;6.00;;
76818;SDS011;65772;51.096;17.006;2024-01-15T00:11:17;11.80;;;5.20;;
76818;SDS011;65772;51.096;17.006;2024-01-15T00:13:48;11.50;;;5.70;;
76818;SDS011;65772;51.096;17.006;2024-01-15T00:16:18;9.50;;;5.00;;
76818;SDS011;65772;51.096;17.006;2024-01-15T00:18:49;11.90;;;6.00;;
76818;SDS011;65772;51.096;17.006;2024-01-15T00:21:20;12.90;;;5.90;;
76818;SDS011;65772;51.096;17.006;2024-01-15T00:23:51;12.00;;;5.70;;
76818;SDS011;65772;51.096;17.006;2024-01-15T00:26:21;10.70;;;5.20;;
76818;SDS011;65772;51.096;17.006;2024-01-15T00:28:52;12.00;;;5.50;;
76818;SDS011;65772;51.096;17.006;2024-01-15T00:31:22;10.50;;;5.20;;
76818;SDS011;65772;51.096;17.006;2024-01-15T00:33:53;10.30;;;5.00;;
76818;SDS011;65772;51.096;17.006;2024-01-15T00:36:23;10.50;;;5.40;;
76818;SDS011;65772;51.096;17.006;2024-01-15T00:38:54;12.30;;;6.00;;
76818;SDS011;65772;51.096;17.006;2024-01-15T00:41:25;11.50;;;5.80;;
76818;SDS011;65772;51.096;17.006;2024-01-15T00:43:56;11.80;;;5.40;;
76818;SDS011;65772;51.096;17.006;2024-01-15T00:46:26;13.10;;;6.60;;
76818;SDS011;65772;51.096;17.006;2024-01-15T00:48:57;10.60;;;5.50;;
76818;SDS011;65772;51.096;17.006;2024-01-15T00:51:28;11.50;;;5.20;;
76818;SDS011;65772;51.096;17.006;2024-01-15T00:53:58;12.70;;;6.20;;
76818;SDS011;65772;51.096;17.006;2024-01-15T00:56:30;12.40;;;5.90;;
76818;SDS011;65772;51.096;17.006;2024-01-15T00:59:00;11.20;;;5.00;;
76818;SDS011;65772;51.096;17.006;2024-01-15T01:01:31;11.50;;;5.60;;
76818;SDS011;65772;51.096;17.006;2024-01-15T01:04:02;10.50;;;5.20;;
76818;SDS011;65772;51.096;17.006;2024-01-15T01:06:32;10.90;;;5.00;;
76818;SDS011;65772;51.096;17.006;2024-01-15T01:09:03;11.80;;;5.70;;
76818;SDS011;65772;51.096;17.006;2024-01-15T01:11:34;10.70;;;5.20;;
76818;SDS011;65772;51.096;17.006;2024-01-15T01:14:04;13.60;;;6.30;;
76818;SDS011;65772;51.096;17.006;2024-01-15T01:16:35;10.80;;;5.80;;
76818;SDS011;65772;51.096;17.006;2024-01-15T01:19:07;12.10;;;6.40;;
76818;SDS011;65772;51.096;17.006;2024-01-15T01:21:38;12.20;;;5.90;;
76818;SDS011;65772;51.096;17.006;2024-01-15T01:24:08;11.10;;;5.60;;
76818;SDS011;65772;51.096;17.006;2024-01-15T01:26:39;12.20;;;6.10;;
76818;SDS011;65772;51.096;17.006;2024-01-15T01:29:09;10.00;;;5.60;;
76818;SDS011;65772;51.096;17.006;2024-01-15T01:31:43;12.80;;;5.60;;
76818;SDS011;65772;51.096;17.006;2024-01-15T01:34:15;12.80;;;6.90;;
76818;SDS011;65772;51.096;17.006;2024-01-15T01:36:46;12.80;;;6.00;;
76818;SDS011;65772;51.096;17.006;2024-01-15T01:39:17;11.80;;;5.90;;
76818;SDS011;65772;51.096;17.006;2024-01-15T01:41:47;10.90;;;5.40;;
76818;SDS011;65772;51.096;17.006;2024-01-15T01:44:18;11.40;;;5.20;;
76818;SDS011;65772;51.096;17.006;2024-01-15T01:46:48;9.70;;;5.20;;
76818;SDS011;65772;51.096;17.006;2024-01-15T01:49:19;13.30;;;6.30;;
76818;SDS011;65772;51.096;17.006;2024-01-15T01:51:50;15.60;;;7.40;;
76818;SDS011;65772;51.096;17.006;2024-01-15T01:54:21;13.50;;;6.80;;
76818;SDS011;65772;51.096;17.006;2024-01-15T01:56:52;10.00;;;5.20;;
76818;SDS011;65772;51.096;17.006;2024-01-15T01:59:22;11.90;;;6.40;;
76818;SDS011;65772;51.096;17.006;2024-01-15T02:01:55;11.40;;;6.10;;
76818;SDS011;65772;51.096;17.006;2024-01-15T02:04:26;11.40;;;5.50;;
76818;SDS011;65772;51.096;17.006;2024-01-15T02:06:57;9.70;;;5.30;;
76818;SDS011;65772;51.096;17.006;2024-01-15T02:09:27;11.00;;;5.60;;
76818;SDS011;65772;51.096;17.006;2024-01-15T02:11:59;11.30;;;5.90;;
76818;SDS011;65772;51.096;17.006;2024-01-15T02:14:30;12.30;;;6.10;;
76818;SDS011;65772;51.096;17.006;2024-01-15T02:17:01;11.60;;;6.20;;
76818;SDS011;65772;51.096;17.006;2024-01-15T02:19:32;10.30;;;5.40;;
76818;SDS011;65772;51.096;17.006;2024-01-15T02:22:03;10.60;;;5.40;;
76818;SDS011;65772;51.096;17.006;2024-01-15T02:24:33;12.00;;;6.40;;
76818;SDS011;65772;51.096;17.006;2024-01-15T02:27:04;12.60;;;6.10;;
76818;SDS011;65772;51.096;17.006;2024-01-15T02:29:35;13.40;;;7.10;;
76818;SDS011;65772;51.096;17.006;2024-01-15T02:32:07;12.00;;;5.80;;
76818;SDS011;65772;51.096;17.006;2024-01-15T02:37:08;9.00;;;5.40;;
76818;SDS011;65772;51.096;17.006;2024-01-15T02:39:38;10.20;;;5.50;;
76818;SDS011;65772;51.096;17.006;2024-01-15T02:42:09;11.00;;;5.20;;
76818;SDS011;65772;51.096;17.006;2024-01-15T02:44:39;13.80;;;5.40;;
76818;SDS011;65772;51.096;17.006;2024-01-15T02:47:10;11.40;;;6.10;;
76818;SDS011;65772;51.096;17.006;2024-01-15T02:49:40;13.30;;;6.20;;
76818;SDS011;65772;51.096;17.006;2024-01-15T02:52:11;10.60;;;5.90;;
76818;SDS011;65772;51.096;17.006;2024-01-15T02:54:41;9.80;;;4.80;;
76818;SDS011;65772;51.096;17.006;2024-01-15T02:57:12;10.10;;;5.50;;
76818;SDS011;65772;51.096;17.006;2024-01-15T02:59:42;9.80;;;4.50;;
76818;SDS011;65772;51.096;17.006;2024-01-15T03:02:13;10.10;;;4.70;;
76818;SDS011;65772;51.096;17.006;2024-01-15T03:04:44;10.80;;;4.50;;
76818;SDS011;65772;51.096;17.006;2024-01-15T03:07:15;9.20;;;4.70;;
76818;SDS011;65772;51.096;17.006;2024-01-15T03:09:46;9.80;;;5.20;;
76818;SDS011;65772;51.096;17.006;2024-01-15T03:12:17;9.30;;;4.90;;
76818;SDS011;65772;51.096;17.006;2024-01-15T03:14:48;9.20;;;4.50;;
76818;SDS011;65772;51.096;17.006;2024-01-15T03:17:18;8.90;;;4.50;;
76818;SDS011;65772;51.096;17.006;2024-01-15T03:19:49;8.20;;;4.00;;
76818;SDS011;65772;51.096;17.006;2024-01-15T03:22:19;8.10;;;4.40;;
76818;SDS011;65772;51.096;17.006;2024-01-15T03:24:50;8.10;;;4.00;;
76818;SDS011;65772;51.096;17.006;2024-01-15T03:27:21;7.90;;;4.10;;
76818;SDS011;65772;51.096;17.006;2024-01-15T03:29:53;6.20;;;3.30;;
76818;SDS011;65772;51.096;17.006;2024-01-15T03:32:24;5.50;;;2.90;;
76818;SDS011;65772;51.096;17.006;2024-01-15T03:34:54;6.20;;;3.30;;
76818;SDS011;65772;51.096;17.006;2024-01-15T03:37:25;7.40;;;3.40;;
76818;SDS011;65772;51.096;17.006;2024-01-15T03:39:56;8.20;;;3.30;;
76818;SDS011;65772;51.096;17.006;2024-01-15T03:42:26;7.10;;;3.80;;
76818;SDS011;65772;51.096;17.006;2024-01-15T03:44:57;8.90;;;4.00;;
76818;SDS011;65772;51.096;17.006;2024-01-15T03:47:27;7.60;;;3.70;;
76818;SDS011;65772;51.096;17.006;2024-01-15T03:49:58;8.80;;;4.20;;
76818;SDS011;65772;51.096;17.006;2024-01-15T03:52:28;10.70;;;4.40;;
76818;SDS011;65772;51.096;17.006;2024-01-15T03:54:59;8.20;;;4.30;;
76818;SDS011;65772;51.096;17.006;2024-01-15T03:57:30;10.20;;;5.10;;
76818;SDS011;65772;51.096;17.006;2024-01-15T04:00:00;8.00;;;4.50;;
76818;SDS011;65772;51.096;17.006;2024-01-15T04:02:31;8.20;;;3.60;;
76818;SDS011;65772;51.096;17.006;2024-01-15T04:05:02;8.60;;;4.00;;
76818;SDS011;65772;51.096;17.006;2024-01-15T04:07:33;9.60;;;4.60;;
76818;SDS011;65772;51.096;17.006;2024-01-15T04:10:04;7.30;;;3.80;;
76818;SDS011;65772;51.096;17.006;2024-01-15T04:12:35;8.90;;;4.40;;
76818;SDS011;65772;51.096;17.006;2024-01-15T04:15:06;8.30;;;3.90;;
76818;SDS011;65772;51.096;17.006;2024-01-15T04:17:37;7.00;;;3.90;;
76818;SDS011;65772;51.096;17.006;2024-01-15T04:20:08;7.60;;;3.30;;
76818;SDS011;65772;51.096;17.006;2024-01-15T04:22:39;8.30;;;3.90;;
76818;SDS011;65772;51.096;17.006;2024-01-15T04:25:10;7.80;;;4.00;;
76818;SDS011;65772;51.096;17.006;2024-01-15T04:27:40;8.20;;;3.60;;
76818;SDS011;65772;51.096;17.006;2024-01-15T04:30:12;8.60;;;3.80;;
76818;SDS011;65772;51.096;17.006;2024-01-15T04:32:43;6.70;;;3.50;;
76818;SDS011;65772;51.096;17.006;2024-01-15T04:35:13;6.70;;;3.00;;
76818;SDS011;65772;51.096;17.006;2024-01-15T04:37:44;7.20;;;3.90;;
76818;SDS011;65772;51.096;17.006;2024-01-15T04:40:15;6.30;;;3.40;;
76818;SDS011;65772;51.096;17.006;2024-01-15T04:42:45;6.50;;;3.60;;
76818;SDS011;65772;51.096;17.006;2024-01-15T04:45:16;8.20;;;3.80;;
76818;SDS011;65772;51.096;17.006;2024-01-15T04:47:47;7.70;;;3.70;;
76818;SDS011;65772;51.096;17.006;2024-01-15T04:50:18;11.00;;;4.60;;
76818;SDS011;65772;51.096;17.006;2024-01-15T04:52:49;8.90;;;4.10;;
76818;SDS011;65772;51.096;17.006;2024-01-15T04:55:19;10.40;;;5.30;;
76818;SDS011;65772;51.096;17.006;2024-01-15T04:57:50;9.40;;;4.90;;
76818;SDS011;65772;51.096;17.006;2024-01-15T05:00:20;9.30;;;4.30;;
76818;SDS011;65772;51.096;17.006;2024-01-15T05:02:51;9.00;;;4.20;;
76818;SDS011;65772;51.096;17.006;2024-01-15T05:05:22;9.10;;;4.70;;
76818;SDS011;65772;51.096;17.006;2024-01-15T05:07:53;8.80;;;4.50;;
76818;SDS011;65772;51.096;17.006;2024-01-15T05:10:24;8.90;;;4.30;;
76818;SDS011;65772;51.096;17.006;2024-01-15T05:12:54;8.00;;;3.90;;
76818;SDS011;65772;51.096;17.006;2024-01-15T05:15:25;8.00;;;4.20;;
76818;SDS011;65772;51.096;17.006;2024-01-15T05:17:56;8.10;;;4.10;;
76818;SDS011;65772;51.096;17.006;2024-01-15T05:20:27;8.70;;;3.80;;
76818;SDS011;65772;51.096;17.006;2024-01-15T05:22:57;5.90;;;3.00;;
76818;SDS011;65772;51.096;17.006;2024-01-15T05:25:28;6.30;;;3.30;;
76818;SDS011;65772;51.096;17.006;2024-01-15T05:27:58;5.40;;;2.70;;
76818;SDS011;65772;51.096;17.006;2024-01-15T05:30:29;7.00;;;2.60;;
76818;SDS011;65772;51.096;17.006;2024-01-15T05:33:00;5.90;;;2.90;;
76818;SDS011;65772;51.096;17.006;2024-01-15T05:35:31;6.70;;;3.70;;
76818;SDS011;65772;51.096;17.006;2024-01-15T05:38:01;5.90;;;2.70;;
76818;SDS011;65772;51.096;17.006;2024-01-15T05:40:32;7.80;;;2.90;;
76818;SDS011;65772;51.096;17.006;2024-01-15T05:43:03;8.70;;;3.30;;
76818;SDS011;65772;51.096;17.006;2024-01-15T05:45:34;6.80;;;3.20;;
76818;SDS011;65772;51.096;17.006;2024-01-15T05:48:07;6.80;;;3.60;;
76818;SDS011;65772;51.096;17.006;2024-01-15T05:50:38;6.30;;;3.30;;
76818;SDS011;65772;51.096;17.006;2024-01-15T05:53:08;7.40;;;3.50;;
76818;SDS011;65772;51.096;17.006;2024-01-15T05:55:39;8.30;;;3.70;;
76818;SDS011;65772;51.096;17.006;2024-01-15T05:58:09;7.50;;;3.90;;
76818;SDS011;65772;51.096;17.006;2024-01-15T06:00:40;7.30;;;3.10;;
76818;SDS011;65772;51.096;17.006;2024-01-15T06:03:10;7.60;;;3.20;;
76818;SDS011;65772;51.096;17.006;2024-01-15T06:05:41;5.90;;;3.30;;
76818;SDS011;65772;51.096;17.006;2024-01-15T06:08:12;7.80;;;3.90;;
76818;SDS011;65772;51.096;17.006;2024-01-15T06:10:43;6.80;;;3.60;;
76818;SDS011;65772;51.096;17.006;2024-01-15T06:13:13;7.90;;;3.60;;
76818;SDS011;65772;51.096;17.006;2024-01-15T06:15:44;8.80;;;4.10;;
76818;SDS011;65772;51.096;17.006;2024-01-15T06:18:15;5.80;;;2.90;;
76818;SDS011;65772;51.096;17.006;2024-01-15T06:20:46;7.40;;;2.90;;
76818;SDS011;65772;51.096;17.006;2024-01-15T06:23:16;6.60;;;2.90;;
76818;SDS011;65772;51.096;17.006;2024-01-15T06:25:48;6.70;;;3.30;;
76818;SDS011;65772;51.096;17.006;2024-01-15T06:28:18;6.30;;;3.00;;
76818;SDS011;65772;51.096;17.006;2024-01-15T06:30:49;6.70;;;3.20;;
76818;SDS011;65772;51.096;17.006;2024-01-15T06:33:20;6.50;;;3.10;;
76818;SDS011;65772;51.096;17.006;2024-01-15T06:35:50;6.50;;;3.20;;
76818;SDS011;65772;51.096;17.006;2024-01-15T06:38:21;5.40;;;2.80;;
76818;SDS011;65772;51.096;17.006;2024-01-15T06:40:52;7.20;;;2.90;;
76818;SDS011;65772;51.096;17.006;2024-01-15T06:43:23;8.00;;;3.50;;
76818;SDS011;65772;51.096;17.006;2024-01-15T06:45:53;7.40;;;3.10;;
76818;SDS011;65772;51.096;17.006;2024-01-15T06:48:24;6.90;;;3.20;;
76818;SDS011;65772;51.096;17.006;2024-01-15T06:50:55;4.90;;;2.60;;
76818;SDS011;65772;51.096;17.006;2024-01-15T06:53:26;7.30;;;2.90;;
76818;SDS011;65772;51.096;17.006;2024-01-15T06:55:56;5.20;;;2.70;;
76818;SDS011;65772;51.096;17.006;2024-01-15T06:58:27;6.10;;;2.70;;
76818;SDS011;65772;51.096;17.006;2024-01-15T07:00:59;6.50;;;3.10;;
76818;SDS011;65772;51.096;17.006;2024-01-15T07:03:30;8.50;;;3.10;;
76818;SDS011;65772;51.096;17.006;2024-01-15T07:06:01;7.20;;;3.60;;
76818;SDS011;65772;51.096;17.006;2024-01-15T07:08:32;7.70;;;3.70;;
76818;SDS011;65772;51.096;17.006;2024-01-15T07:11:04;7.10;;;3.20;;
76818;SDS011;65772;51.096;17.006;2024-01-15T07:13:37;8.10;;;3.40;;
76818;SDS011;65772;51.096;17.006;2024-01-15T07:16:08;8.20;;;3.40;;
76818;SDS011;65772;51.096;17.006;2024-01-15T07:18:38;8.30;;;3.90;;
76818;SDS011;65772;51.096;17.006;2024-01-15T07:21:09;7.70;;;3.50;;
76818;SDS011;65772;51.096;17.006;2024-01-15T07:23:40;7.30;;;3.30;;
76818;SDS011;65772;51.096;17.006;2024-01-15T07:26:11;7.60;;;4.00;;
76818;SDS011;65772;51.096;17.006;2024-01-15T07:28:41;7.90;;;3.60;;
76818;SDS011;65772;51.096;17.006;2024-01-15T07:31:12;7.20;;;3.30;;
76818;SDS011;65772;51.096;17.006;2024-01-15T07:33:44;10.40;;;3.90;;
76818;SDS011;65772;51.096;17.006;2024-01-15T07:36:15;6.90;;;3.50;;
76818;SDS011;65772;51.096;17.006;2024-01-15T07:38:45;8.60;;;3.90;;
76818;SDS011;65772;51.096;17.006;2024-01-15T07:41:16;7.10;;;3.40;;
76818;SDS011;65772;51.096;17.006;2024-01-15T07:43:47;8.50;;;3.70;;
76818;SDS011;65772;51.096;17.006;2024-01-15T07:46:17;9.00;;;3.60;;
76818;SDS011;65772;51.096;17.006;2024-01-15T07:48:48;9.70;;;3.70;;
76818;SDS011;65772;51.096;17.006;2024-01-15T07:51:24;7.50;;;3.90;;
76818;SDS011;65772;51.096;17.006;2024-01-15T07:53:55;6.30;;;3.10;;
76818;SDS011;65772;51.096;17.006;2024-01-15T07:56:25;8.80;;;3.40;;
76818;SDS011;65772;51.096;17.006;2024-01-15T07:58:56;6.60;;;3.20;;
76818;SDS011;65772;51.096;17.006;2024-01-15T08:01:26;6.40;;;3.40;;
76818;SDS011;65772;51.096;17.006;2024-01-15T08:03:57;6.90;;;3.30;;
76818;SDS011;65772;51.096;17.006;2024-01-15T08:06:28;6.00;;;3.00;;
76818;SDS011;65772;51.096;17.006;2024-01-15T08:08:59;6.50;;;2.90;;
76818;SDS011;65772;51.096;17.006;2024-01-15T08:11:31;6.70;;;2.70;;
76818;SDS011;65772;51.096;17.006;2024-01-15T08:14:02;7.00;;;2.90;;
76818;SDS011;65772;51.096;17.006;2024-01-15T08:16:32;7.90;;;3.30;;
76818;SDS011;65772;51.096;17.006;2024-01-15T08:19:03;6.30;;;2.30;;
76818;SDS011;65772;51.096;17.006;2024-01-15T08:21:34;9.60;;;3.10;;
76818;SDS011;65772;51.096;17.006;2024-01-15T08:24:05;9.10;;;3.30;;
76818;SDS011;65772;51.096;17.006;2024-01-15T08:26:35;8.00;;;3.10;;
76818;SDS011;65772;51.096;17.006;2024-01-15T08:29:06;6.10;;;2.50;;
76818;SDS011;65772;51.096;17.006;2024-01-15T08:31:36;7.30;;;3.00;;
76818;SDS011;65772;51.096;17.006;2024-01-15T08:34:08;9.50;;;2.80;;
76818;SDS011;65772;51.096;17.006;2024-01-15T08:36:38;7.90;;;3.00;;
76818;SDS011;65772;51.096;17.006;2024-01-15T08:39:09;6.30;;;2.60;;
76818;SDS011;65772;51.096;17.006;2024-01-15T08:41:40;9.30;;;3.00;;
76818;SDS011;65772;51.096;17.006;2024-01-15T08:44:11;4.60;;;2.10;;
76818;SDS011;65772;51.096;17.006;2024-01-15T08:46:41;6.00;;;2.70;;
76818;SDS011;65772;51.096;17.006;2024-01-15T08:49:12;7.10;;;2.40;;
76818;SDS011;65772;51.096;17.006;2024-01-15T08:51:42;6.20;;;2.40;;
76818;SDS011;65772;51.096;17.006;2024-01-15T08:54:13;5.50;;;2.70;;
76818;SDS011;65772;51.096;17.006;2024-01-15T08:56:46;6.00;;;2.30;;
76818;SDS011;65772;51.096;17.006;2024-01-15T08:59:16;7.90;;;2.60;;
76818;SDS011;65772;51.096;17.006;2024-01-15T09:01:52;7.40;;;2.90;;
76818;SDS011;65772;51.096;17.006;2024-01-15T09:04:24;6.90;;;2.60;;
76818;SDS011;65772;51.096;17.006;2024-01-15T09:06:55;6.00;;;2.30;;
76818;SDS011;65772;51.096;17.006;2024-01-15T09:09:26;6.90;;;2.30;;
76818;SDS011;65772;51.096;17.006;2024-01-15T09:11:56;7.80;;;2.30;;
76818;SDS011;65772;51.096;17.006;2024-01-15T09:14:27;6.70;;;2.20;;
76818;SDS011;65772;51.096;17.006;2024-01-15T09:17:05;6.10;;;2.70;;
76818;SDS011;65772;51.096;17.006;2024-01-15T09:19:35;5.30;;;2.30;;
76818;SDS011;65772;51.096;17.006;2024-01-15T09:22:07;6.10;;;2.40;;
76818;SDS011;65772;51.096;17.006;2024-01-15T09:24:39;4.80;;;2.10;;
76818;SDS011;65772;51.096;17.006;2024-01-15T09:27:10;6.10;;;2.30;;
76818;SDS011;65772;51.096;17.006;2024-01-15T09:29:41;5.30;;;2.00;;
76818;SDS011;65772;51.096;17.006;2024-01-15T09:34:43;4.50;;;2.20;;
76818;SDS011;65772;51.096;17.006;2024-01-15T09:37:15;5.90;;;2.30;;
76818;SDS011;65772;51.096;17.006;2024-01-15T09:40:04;5.50;;;2.50;;
76818;SDS011;65772;51.096;17.006;2024-01-15T09:42:37;5.90;;;2.30;;
76818;SDS011;65772;51.096;17.006;2024-01-15T09:45:09;7.60;;;2.90;;
76818;SDS011;65772;51.096;17.006;2024-01-15T09:47:40;5.20;;;2.10;;
76818;SDS011;65772;51.096;17.006;2024-01-15T09:50:13;5.90;;;2.20;;
76818;SDS011;65772;51.096;17.006;2024-01-15T09:52:45;5.30;;;2.20;;
76818;SDS011;65772;51.096;17.006;2024-01-15T09:55:17;6.80;;;2.10;;
76818;SDS011;65772;51.096;17.006;2024-01-15T09:57:47;6.50;;;2.70;;
76818;SDS011;65772;51.096;17.006;2024-01-15T10:00:19;6.00;;;2.50;;
76818;SDS011;65772;51.096;17.006;2024-01-15T10:02:51;5.40;;;2.30;;
76818;SDS011;65772;51.096;17.006;2024-01-15T10:05:21;4.90;;;2.40;;
76818;SDS011;65772;51.096;17.006;2024-01-15T10:07:52;5.90;;;2.40;;
76818;SDS011;65772;51.096;17.006;2024-01-15T10:10:25;5.60;;;2.30;;
76818;SDS011;65772;51.096;17.006;2024-01-15T10:12:55;5.90;;;2.30;;
76818;SDS011;65772;51.096;17.006;2024-01-15T10:15:27;6.50;;;1.90;;
76818;SDS011;65772;51.096;17.006;2024-01-15T10:17:57;5.40;;;2.40;;
76818;SDS011;65772;51.096;17.006;2024-01-15T10:20:28;5.50;;;2.50;;
76818;SDS011;65772;51.096;17.006;2024-01-15T10:23:00;7.70;;;2.60;;
76818;SDS011;65772;51.096;17.006;2024-01-15T10:25:32;7.00;;;2.30;;
76818;SDS011;65772;51.096;17.006;2024-01-15T10:28:04;8.20;;;2.60;;
76818;SDS011;65772;51.096;17.006;2024-01-15T10:30:35;5.30;;;2.00;;
76818;SDS011;65772;51.096;17.006;2024-01-15T10:33:06;6.80;;;2.50;;
76818;SDS011;65772;51.096;17.006;2024-01-15T10:35:37;7.70;;;2.70;;
76818;SDS011;65772;51.096;17.006;2024-01-15T10:38:09;6.90;;;2.50;;
76818;SDS011;65772;51.096;17.006;2024-01-15T10:40:40;6.30;;;2.50;;
76818;SDS011;65772;51.096;17.006;2024-01-15T10:43:10;8.90;;;2.30;;
76818;SDS011;65772;51.096;17.006;2024-01-15T10:45:41;7.20;;;2.60;;
76818;SDS011;65772;51.096;17.006;2024-01-15T10:48:12;8.60;;;3.00;;
76818;SDS011;65772;51.096;17.006;2024-01-15T10:50:43;6.60;;;1.90;;
76818;SDS011;65772;51.096;17.006;2024-01-15T10:53:16;5.60;;;2.20;;
76818;SDS011;65772;51.096;17.006;2024-01-15T10:55:47;9.60;;;2.40;;
76818;SDS011;65772;51.096;17.006;2024-01-15T10:58:19;5.90;;;2.60;;
76818;SDS011;65772;51.096;17.006;2024-01-15T11:03:21;6.50;;;2.00;;
76818;SDS011;65772;51.096;17.006;2024-01-15T11:05:53;5.20;;;2.40;;
76818;SDS011;65772;51.096;17.006;2024-01-15T11:08:23;7.20;;;2.20;;
76818;SDS011;65772;51.096;17.006;2024-01-15T11:10:55;7.80;;;2.70;;
76818;SDS011;65772;51.096;17.006;2024-01-15T11:16:15;5.80;;;2.50;;
76818;SDS011;65772;51.096;17.006;2024-01-15T11:21:36;4.30;;;2.00;;
76818;SDS011;65772;51.096;17.006;2024-01-15T11:24:12;6.00;;;2.10;;
76818;SDS011;65772;51.096;17.006;2024-01-15T11:27:04;7.80;;;2.20;;
76818;SDS011;65772;51.096;17.006;2024-01-15T11:29:36;5.40;;;2.30;;
76818;SDS011;65772;51.096;17.006;2024-01-15T11:32:07;6.40;;;2.30;;
76818;SDS011;65772;51.096;17.006;2024-01-15T11:40:37;6.50;;;2.10;;
76818;SDS011;65772;51.096;17.006;2024-01-15T11:43:10;5.40;;;2.10;;
76818;SDS011;65772;51.096;17.006;2024-01-15T11:45:44;6.20;;;2.40;;
76818;SDS011;65772;51.096;17.006;2024-01-15T11:48:19;7.00;;;2.70;;
76818;SDS011;65772;51.096;17.006;2024-01-15T11:50:52;5.50;;;1.80;;
76818;SDS011;65772;51.096;17.006;2024-01-15T11:53:32;5.70;;;2.30;;
76818;SDS011;65772;51.096;17.006;2024-01-15T11:56:06;6.50;;;2.10;;
76818;SDS011;65772;51.096;17.006;2024-01-15T11:58:45;6.10;;;2.00;;
76818;SDS011;65772;51.096;17.006;2024-01-15T12:01:15;8.00;;;2.30;;
76818;SDS011;65772;51.096;17.006;2024-01-15T12:03:48;5.80;;;2.50;;
76818;SDS011;65772;51.096;17.006;2024-01-15T12:06:19;5.10;;;2.20;;
76818;SDS011;65772;51.096;17.006;2024-01-15T12:08:51;6.20;;;2.40;;
76818;SDS011;65772;51.096;17.006;2024-01-15T12:11:36;6.20;;;1.90;;
76818;SDS011;65772;51.096;17.006;2024-01-15T12:14:11;6.60;;;2.10;;
76818;SDS011;65772;51.096;17.006;2024-01-15T12:16:44;5.30;;;2.10;;
76818;SDS011;65772;51.096;17.006;2024-01-15T12:19:15;6.10;;;2.60;;
76818;SDS011;65772;51.096;17.006;2024-01-15T12:21:45;7.00;;;2.70;;
76818;SDS011;65772;51.096;17.006;2024-01-15T12:24:17;8.10;;;2.40;;
76818;SDS011;65772;51.096;17.006;2024-01-15T12:26:48;8.00;;;2.40;;
76818;SDS011;65772;51.096;17.006;2024-01-15T12:29:19;7.20;;;2.40;;
76818;SDS011;65772;51.096;17.006;2024-01-15T12:31:50;6.10;;;2.20;;
76818;SDS011;65772;51.096;17.006;2024-01-15T12:34:23;5.80;;;1.80;;
76818;SDS011;65772;51.096;17.006;2024-01-15T12:36:58;6.80;;;2.30;;
76818;SDS011;65772;51.096;17.006;2024-01-15T12:39:29;5.30;;;2.20;;
76818;SDS011;65772;51.096;17.006;2024-01-15T12:42:00;9.50;;;2.60;;
76818;SDS011;65772;51.096;17.006;2024-01-15T12:44:31;4.40;;;1.90;;
76818;SDS011;65772;51.096;17.006;2024-01-15T12:47:03;7.60;;;2.40;;
76818;SDS011;65772;51.096;17.006;2024-01-15T12:49:37;8.20;;;2.30;;
76818;SDS011;65772;51.096;17.006;2024-01-15T12:52:09;6.60;;;2.40;;
76818;SDS011;65772;51.096;17.006;2024-01-15T12:54:39;5.60;;;2.40;;
76818;SDS011;65772;51.096;17.006;2024-01-15T12:57:10;6.90;;;2.50;;
76818;SDS011;65772;51.096;17.006;2024-01-15T12:59:41;5.70;;;2.30;;
76818;SDS011;65772;51.096;17.006;2024-01-15T13:02:11;7.10;;;2.10;;
76818;SDS011;65772;51.096;17.006;2024-01-15T13:04:43;6.30;;;2.20;;
76818;SDS011;65772;51.096;17.006;2024-01-15T13:07:14;6.80;;;2.30;;
76818;SDS011;65772;51.096;17.006;2024-01-15T13:09:44;6.90;;;2.20;;
76818;SDS011;65772;51.096;17.006;2024-01-15T13:12:15;5.00;;;2.00;;
76818;SDS011;65772;51.096;17.006;2024-01-15T13:14:46;5.20;;;2.00;;
76818;SDS011;65772;51.096;17.006;2024-01-15T13:17:16;5.80;;;2.10;;
76818;SDS011;65772;51.096;17.006;2024-01-15T13:19:48;6.50;;;2.30;;
76818;SDS011;65772;51.096;17.006;2024-01-15T13:22:20;6.00;;;2.20;;
76818;SDS011;65772;51.096;17.006;2024-01-15T13:27:21;8.00;;;2.70;;
76818;SDS011;65772;51.096;17.006;2024-01-15T13:29:52;6.30;;;2.40;;
76818;SDS011;65772;51.096;17.006;2024-01-15T13:32:23;5.80;;;2.60;;
76818;SDS011;65772;51.096;17.006;2024-01-15T13:34:55;6.30;;;2.40;;
76818;SDS011;65772;51.096;17.006;2024-01-15T13:37:26;4.80;;;2.40;;
76818;SDS011;65772;51.096;17.006;2024-01-15T13:39:56;7.00;;;2.90;;
76818;SDS011;65772;51.096;17.006;2024-01-15T13:42:27;7.70;;;2.20;;
76818;SDS011;65772;51.096;17.006;2024-01-15T13:44:58;4.00;;;2.20;;
76818;SDS011;65772;51.096;17.006;2024-01-15T13:47:28;7.50;;;2.70;;
76818;SDS011;65772;51.096;17.006;2024-01-15T13:49:59;5.60;;;2.10;;
76818;SDS011;65772;51.096;17.006;2024-01-15T13:52:29;6.60;;;2.20;;
76818;SDS011;65772;51.096;17.006;2024-01-15T13:55:00;5.40;;;2.60;;
76818;SDS011;65772;51.096;17.006;2024-01-15T13:57:31;5.50;;;1.90;;
76818;SDS011;65772;51.096;17.006;2024-01-15T14:00:01;5.40;;;2.10;;
76818;SDS011;65772;51.096;17.006;2024-01-15T14:02:37;6.50;;;2.80;;
76818;SDS011;65772;51.096;17.006;2024-01-15T14:05:08;5.00;;;2.10;;
76818;SDS011;65772;51.096;17.006;2024-01-15T14:07:40;7.50;;;2.00;;
76818;SDS011;65772;51.096;17.006;2024-01-15T14:10:11;5.00;;;2.00;;
76818;SDS011;65772;51.096;17.006;2024-01-15T14:12:42;7.20;;;2.40;;
76818;SDS011;65772;51.096;17.006;2024-01-15T14:15:13;7.00;;;2.50;;
76818;SDS011;65772;51.096;17.006;2024-01-15T14:17:44;7.10;;;2.00;;
76818;SDS011;65772;51.096;17.006;2024-01-15T14:20:14;8.60;;;2.50;;
76818;SDS011;65772;51.096;17.006;2024-01-15T14:22:49;5.30;;;2.50;;
76818;SDS011;65772;51.096;17.006;2024-01-15T14:25:20;5.60;;;2.30;;
76818;SDS011;65772;51.096;17.006;2024-01-15T14:27:52;4.80;;;2.20;;
76818;SDS011;65772;51.096;17.006;2024-01-15T14:30:22;7.20;;;2.50;;
76818;SDS011;65772;51.096;17.006;2024-01-15T14:32:53;6.10;;;2.30;;
76818;SDS011;65772;51.096;17.006;2024-01-15T14:35:24;4.40;;;1.70;;
76818;SDS011;65772;51.096;17.006;2024-01-15T14:37:54;5.70;;;2.20;;
76818;SDS011;65772;51.096;17.006;2024-01-15T14:40:26;9.20;;;3.50;;
76818;SDS011;65772;51.096;17.006;2024-01-15T14:42:57;8.10;;;2.90;;
76818;SDS011;65772;51.096;17.006;2024-01-15T14:45:28;6.00;;;2.50;;
76818;SDS011;65772;51.096;17.006;2024-01-15T14:47:58;6.80;;;2.50;;
76818;SDS011;65772;51.096;17.006;2024-01-15T14:50:29;7.40;;;2.90;;
76818;SDS011;65772;51.096;17.006;2024-01-15T14:52:59;8.30;;;3.10;;
76818;SDS011;65772;51.096;17.006;2024-01-15T14:55:30;8.40;;;3.50;;
76818;SDS011;65772;51.096;17.006;2024-01-15T14:58:01;9.20;;;3.40;;
76818;SDS011;65772;51.096;17.006;2024-01-15T15:00:32;10.90;;;4.40;;
76818;SDS011;65772;51.096;17.006;2024-01-15T15:03:03;10.30;;;4.70;;
76818;SDS011;65772;51.096;17.006;2024-01-15T15:05:33;10.30;;;4.80;;
76818;SDS011;65772;51.096;17.006;2024-01-15T15:08:04;13.40;;;5.10;;
76818;SDS011;65772;51.096;17.006;2024-01-15T15:10:36;11.50;;;5.40;;
76818;SDS011;65772;51.096;17.006;2024-01-15T15:13:08;15.20;;;5.70;;
76818;SDS011;65772;51.096;17.006;2024-01-15T15:15:38;11.70;;;4.80;;